Time;durP1;ratioP1;P1;durP2;ratioP2;P2;SDS_P1;SDS_P2;PMS_P1;PMS_P2;Temp;Humidity;BMP_temperature;BMP_pressure;BME280_temperature;BME280_humidity;BME280_pressure;Samples;Min_cycle;Max_cycle;Signal;HPM_P1;HPM_P2
2021/01/26 00:01:56;;;;;;;21.80;18.93;;;0.30;99.90;;;1.00;98.65;97576.03;5239436;28;20197;-78
2021/01/26 00:04:28;;;;;;;20.83;18.17;;;0.20;99.90;;;0.92;98.71;97584.50;5241529;28;20578;-77
2021/01/26 00:07:00;;;;;;;20.97;18.23;;;0.20;99.90;;;0.88;99.06;97590.91;5226524;28;20221;-77
2021/01/26 00:09:33;;;;;;;21.87;19.20;;;0.20;99.90;;;0.89;99.36;97600.25;5241919;28;20204;-77
2021/01/26 00:12:05;;;;;;;20.73;17.93;;;0.20;99.90;;;0.85;99.23;97598.19;5235410;28;20205;-76
2021/01/26 00:14:38;;;;;;;23.33;19.37;;;0.10;99.90;;;0.93;99.35;97607.31;5233865;28;20576;-76
2021/01/26 00:17:10;;;;;;;23.73;20.47;;;0.10;99.90;;;0.93;99.40;97608.94;5230866;28;20215;-78
2021/01/26 00:19:42;;;;;;;22.03;18.43;;;0.10;99.90;;;0.85;99.26;97614.16;5235187;28;20269;-77
2021/01/26 00:22:15;;;;;;;23.93;20.10;;;0.10;99.90;;;0.85;99.29;97618.31;5233968;28;20669;-78
2021/01/26 00:24:47;;;;;;;23.47;20.20;;;0.10;99.90;;;0.87;99.45;97621.84;5236793;28;20235;-76
2021/01/26 00:27:19;;;;;;;24.10;19.67;;;0.10;99.90;;;0.93;99.88;97613.97;5241436;28;20687;-76
2021/01/26 00:29:51;;;;;;;24.47;20.43;;;0.20;99.90;;;1.01;99.08;97618.06;5244122;28;20201;-78
2021/01/26 00:32:23;;;;;;;24.07;19.10;;;0.20;99.90;;;0.97;99.39;97619.41;5244613;28;20202;-77
2021/01/26 00:34:55;;;;;;;23.20;19.10;;;0.20;99.90;;;0.93;99.78;97617.38;5242746;28;20628;-78
2021/01/26 00:37:28;;;;;;;22.03;19.10;;;0.20;99.90;;;0.87;98.75;97625.25;5236224;28;20206;-77
2021/01/26 00:40:00;;;;;;;21.13;18.50;;;0.20;99.90;;;0.90;99.73;97617.97;5240516;28;20218;-76
2021/01/26 00:42:32;;;;;;;20.80;18.40;;;0.20;99.90;;;0.89;99.67;97623.78;5233946;28;20198;-76
2021/01/26 00:45:06;;;;;;;19.77;17.37;;;0.20;99.90;;;0.94;99.83;97623.28;5227827;28;20666;-77
2021/01/26 00:47:38;;;;;;;21.07;17.70;;;0.20;99.90;;;0.96;100.00;97625.19;5228871;28;20202;-78
2021/01/26 00:50:12;;;;;;;21.37;19.00;;;0.20;99.90;;;0.99;100.00;97627.97;5225968;28;20200;-78
2021/01/26 00:52:45;;;;;;;22.40;18.80;;;0.20;99.90;;;1.00;100.00;97624.75;5224964;28;20191;-77
2021/01/26 00:55:22;;;;;;;21.53;19.17;;;0.30;99.90;;;1.02;99.90;97633.28;5230496;28;20219;-76
2021/01/26 00:57:55;;;;;;;22.73;19.27;;;0.20;99.90;;;1.02;100.00;97633.28;5244522;28;20700;-77
2021/01/26 01:00:30;;;;;;;21.67;17.77;;;0.20;99.90;;;1.01;100.00;97633.16;5245508;28;20204;-78
2021/01/26 01:03:02;;;;;;;24.30;19.87;;;0.20;99.90;;;1.01;100.00;97631.53;5234167;28;20795;-78
2021/01/26 01:05:35;;;;;;;22.40;19.37;;;0.20;99.90;;;1.03;99.83;97641.72;5228370;28;20631;-78
2021/01/26 01:08:08;;;;;;;24.50;19.53;;;0.20;99.90;;;1.02;99.99;97637.44;5230472;28;20199;-78
2021/01/26 01:10:40;;;;;;;24.93;21.20;;;0.20;99.90;;;0.98;99.56;97635.41;5241668;28;20202;-78
2021/01/26 01:13:13;;;;;;;23.03;20.53;;;0.20;99.90;;;0.98;100.00;97630.38;5226971;28;20244;-78
2021/01/26 01:15:45;;;;;;;22.30;19.97;;;0.20;99.90;;;0.97;99.94;97641.16;5246292;28;20243;-78
2021/01/26 01:18:17;;;;;;;23.17;20.67;;;0.20;99.90;;;0.94;100.00;97643.41;5241021;28;20226;-79
2021/01/26 01:20:50;;;;;;;23.17;19.50;;;0.20;99.90;;;0.97;100.00;97647.06;5232370;28;20251;-78
2021/01/26 01:23:23;;;;;;;24.20;20.00;;;0.20;99.90;;;0.94;99.68;97645.94;5234188;28;20213;-79
2021/01/26 01:25:59;;;;;;;22.50;20.10;;;0.10;99.90;;;0.96;100.00;97654.50;5243754;28;20241;-78
2021/01/26 01:28:31;;;;;;;22.57;20.10;;;0.10;99.90;;;0.94;99.78;97651.84;5233393;28;20203;-76
2021/01/26 01:31:04;;;;;;;22.20;19.90;;;0.10;99.90;;;0.92;100.00;97663.41;5237180;28;20200;-79
2021/01/26 01:33:35;;;;;;;24.13;20.23;;;0.20;99.90;;;0.94;100.00;97664.41;5235718;28;20208;-78
2021/01/26 01:36:08;;;;;;;23.57;20.83;;;0.20;99.90;;;0.98;100.00;97663.97;5249474;28;20214;-78
2021/01/26 01:38:41;;;;;;;24.93;20.57;;;0.30;99.90;;;0.96;100.00;97679.66;5239748;28;20309;-77
2021/01/26 01:41:13;;;;;;;25.67;20.93;;;0.20;99.90;;;0.99;100.00;97674.91;5234109;28;20605;-78
2021/01/26 01:43:50;;;;;;;23.33;20.83;;;0.20;99.90;;;1.03;100.00;97681.97;5249461;28;20194;-77
2021/01/26 01:46:23;;;;;;;22.60;20.20;;;0.20;99.90;;;0.99;99.87;97687.50;5231446;28;20766;-77
2021/01/26 01:49:01;;;;;;;24.50;21.23;;;0.20;99.90;;;0.97;100.00;97684.81;5235782;28;20204;-78
2021/01/26 01:51:37;;;;;;;22.93;20.27;;;0.20;99.90;;;0.93;100.00;97682.78;5242007;28;20195;-78
2021/01/26 01:54:15;;;;;;;23.17;20.50;;;0.20;99.90;;;0.92;100.00;97683.53;5241596;28;20208;-77
2021/01/26 01:56:54;;;;;;;24.43;21.60;;;0.20;99.90;;;0.89;100.00;97684.16;5232378;28;20200;-77
2021/01/26 01:59:32;;;;;;;26.47;20.97;;;0.20;99.90;;;0.92;100.00;97690.19;5229177;28;20233;-77
2021/01/26 02:02:05;;;;;;;23.43;19.60;;;0.10;99.90;;;0.93;100.00;97686.94;5241825;28;20691;-77
2021/01/26 02:04:39;;;;;;;27.10;21.63;;;0.20;99.90;;;0.94;100.00;97691.22;5235382;28;20218;-77
2021/01/26 02:07:12;;;;;;;26.57;22.07;;;0.20;99.90;;;0.96;100.00;97687.22;5232405;28;20309;-78
2021/01/26 02:09:45;;;;;;;25.50;22.07;;;0.20;99.90;;;0.97;100.00;97694.88;5229819;28;20575;-79
2021/01/26 02:12:17;;;;;;;25.23;21.40;;;0.20;99.90;;;0.97;100.00;97702.44;5234227;28;20201;-78
2021/01/26 02:14:54;;;;;;;24.20;21.20;;;0.20;99.90;;;0.99;100.00;97697.56;5239555;28;20277;-79
2021/01/26 02:17:43;;;;;;;26.70;20.80;;;0.20;99.90;;;0.99;100.00;97692.53;5248091;28;20199;-77
2021/01/26 02:21:06;;;;;;;24.30;21.63;;;0.20;99.90;;;1.00;100.00;97701.81;5235096;28;20207;-77
2021/01/26 02:24:13;;;;;;;25.57;21.70;;;0.20;99.90;;;0.99;100.00;97707.63;5236518;28;20205;-78
2021/01/26 02:27:51;;;;;;;24.47;20.97;;;0.20;99.90;;;0.99;100.00;97705.09;5228146;28;20234;-78
2021/01/26 02:31:02;;;;;;;24.60;20.07;;;0.20;99.90;;;1.04;100.00;97711.44;5238016;28;20590;-78
2021/01/26 02:34:31;;;;;;;21.13;17.20;;;0.20;99.90;;;1.13;100.00;97712.28;5241124;28;20194;-77
2021/01/26 02:37:40;;;;;;;21.53;17.80;;;0.20;99.90;;;1.11;99.56;97716.28;5203801;28;20667;-77
2021/01/26 02:40:19;;;;;;;21.20;18.00;;;0.20;99.90;;;1.12;100.00;97713.03;5228121;28;20290;-77
2021/01/26 02:43:18;;;;;;;22.10;19.47;;;0.20;99.90;;;1.18;100.00;97715.22;5244334;28;20219;-77
2021/01/26 02:46:03;;;;;;;19.37;17.17;;;0.20;99.90;;;1.12;100.00;97715.53;5229062;28;20223;-77
2021/01/26 02:48:55;;;;;;;20.33;17.00;;;0.20;99.90;;;1.11;99.99;97713.75;5232275;28;20199;-76
2021/01/26 02:51:35;;;;;;;18.93;16.63;;;0.20;99.90;;;1.12;99.39;97715.53;5227802;28;20930;-76
2021/01/26 02:54:18;;;;;;;18.37;16.47;;;0.20;99.90;;;1.13;99.90;97720.69;5231511;28;20277;-78
2021/01/26 02:56:59;;;;;;;18.50;16.60;;;0.20;99.90;;;1.14;99.34;97719.06;5241368;28;20208;-78
2021/01/26 02:59:38;;;;;;;17.73;15.87;;;0.20;99.90;;;1.26;98.92;97720.19;5233725;28;20224;-78
2021/01/26 03:02:16;;;;;;;17.80;15.93;;;0.20;99.90;;;1.31;97.99;97718.94;5241809;28;20213;-78
2021/01/26 03:04:56;;;;;;;19.27;17.07;;;0.20;99.90;;;1.29;97.78;97720.47;5238608;28;20430;-78
2021/01/26 03:07:34;;;;;;;19.63;16.43;;;0.20;99.90;;;1.30;96.58;97727.25;5248555;28;20221;-79
2021/01/26 03:10:12;;;;;;;19.13;17.00;;;0.20;99.90;;;1.27;95.39;97721.94;5243434;28;20208;-80
2021/01/26 03:12:52;;;;;;;21.13;17.00;;;0.20;99.90;;;1.27;95.57;97726.09;5243058;28;20204;-78
2021/01/26 03:15:31;;;;;;;19.00;16.90;;;0.10;99.90;;;1.24;95.06;97721.69;5248558;28;20220;-78
2021/01/26 03:18:08;;;;;;;17.63;15.70;;;0.10;99.90;;;1.25;94.04;97725.06;5237486;28;20200;-78
2021/01/26 03:20:45;;;;;;;20.13;17.33;;;0.10;99.90;;;1.19;93.93;97724.53;5233710;28;20222;-78
2021/01/26 03:23:21;;;;;;;18.47;16.50;;;0.10;99.90;;;1.17;93.87;97721.84;5233436;28;20676;-78
2021/01/26 03:25:54;;;;;;;17.97;15.63;;;0.10;99.90;;;1.23;93.33;97719.91;5238461;28;20707;-78
2021/01/26 03:28:29;;;;;;;17.97;15.73;;;0.10;99.90;;;1.29;92.78;97728.03;5228338;28;20867;-78
2021/01/26 03:31:02;;;;;;;18.67;15.70;;;0.10;99.90;;;1.18;91.78;97721.13;5236222;28;20204;-78
2021/01/26 03:33:40;;;;;;;18.63;15.27;;;0.10;99.90;;;1.28;92.56;97728.75;5231940;28;20319;-78
2021/01/26 03:36:13;;;;;;;17.57;15.73;;;0.10;99.90;;;1.23;91.79;97740.06;5246526;28;20231;-78
2021/01/26 03:38:46;;;;;;;17.47;15.43;;;0.10;99.90;;;1.05;91.88;97738.38;5233676;28;20237;-78
2021/01/26 03:41:20;;;;;;;18.63;15.80;;;0.10;99.90;;;1.07;93.26;97735.25;5231958;28;20201;-78
2021/01/26 03:43:53;;;;;;;16.33;14.47;;;0.10;99.90;;;1.08;93.02;97733.63;5244892;28;20194;-79
2021/01/26 03:46:42;;;;;;;16.57;14.77;;;0.00;99.90;;;0.96;92.36;97732.50;5231054;28;20310;-77
2021/01/26 03:49:32;;;;;;;17.13;14.77;;;-0.10;99.90;;;0.86;92.87;97731.66;5227170;28;20203;-79
2021/01/26 03:52:24;;;;;;;18.00;14.90;;;-0.10;99.90;;;0.97;92.64;97735.13;5227433;28;20199;-78
2021/01/26 03:55:04;;;;;;;16.77;15.07;;;-0.20;99.90;;;0.93;91.62;97728.06;5231729;28;20248;-78
2021/01/26 03:57:53;;;;;;;17.27;14.03;;;-0.20;99.90;;;0.85;92.02;97737.41;5246862;28;20202;-78
2021/01/26 04:00:35;;;;;;;19.10;15.93;;;-0.20;99.90;;;0.82;92.22;97738.78;5232332;28;20206;-80
2021/01/26 04:03:28;;;;;;;16.90;14.87;;;-0.20;99.90;;;0.81;93.12;97740.41;5229580;28;20192;-78
2021/01/26 04:06:10;;;;;;;17.80;15.80;;;-0.20;99.90;;;0.78;92.53;97732.59;5234002;28;20218;-78
2021/01/26 04:08:48;;;;;;;16.67;14.97;;;-0.20;99.90;;;0.72;92.36;97732.03;5227013;28;20193;-78
2021/01/26 04:11:26;;;;;;;17.27;15.17;;;-0.30;99.90;;;0.66;92.59;97727.31;5239214;28;20207;-78
2021/01/26 04:14:03;;;;;;;18.43;14.93;;;-0.30;99.90;;;0.63;91.24;97719.50;5240642;28;20217;-78
2021/01/26 04:16:44;;;;;;;16.20;14.47;;;-0.30;99.90;;;0.55;91.66;97712.88;5233890;28;20839;-78
2021/01/26 04:19:23;;;;;;;15.73;14.03;;;-0.30;99.90;;;0.56;89.96;97718.78;5240258;28;20680;-79
2021/01/26 04:21:56;;;;;;;17.63;14.40;;;-0.30;99.90;;;0.50;91.33;97718.22;5227921;28;20664;-78
2021/01/26 04:24:32;;;;;;;17.83;13.83;;;-0.20;99.90;;;0.59;91.91;97719.06;5243223;28;20666;-78
2021/01/26 04:27:09;;;;;;;16.40;14.60;;;-0.20;99.90;;;0.81;91.10;97706.84;5231304;28;20269;-78
2021/01/26 04:29:42;;;;;;;15.77;13.50;;;0.00;99.90;;;0.73;89.88;97721.22;5227083;28;20205;-78
2021/01/26 04:32:18;;;;;;;15.80;13.97;;;-0.10;99.90;;;0.67;90.58;97724.03;5238264;28;20196;-78
2021/01/26 04:34:50;;;;;;;16.87;14.70;;;-0.10;99.90;;;0.61;90.74;97720.09;5232790;28;20312;-78
2021/01/26 04:37:22;;;;;;;17.17;14.20;;;-0.10;99.90;;;0.61;91.30;97720.97;5226716;28;20203;-78
2021/01/26 04:39:54;;;;;;;16.60;14.63;;;-0.10;99.90;;;0.59;90.28;97719.06;5225981;28;20221;-80
2021/01/26 04:42:27;;;;;;;17.67;14.43;;;-0.10;99.90;;;0.58;89.45;97723.19;5245914;28;20193;-78
2021/01/26 04:45:10;;;;;;;15.97;13.63;;;-0.10;99.90;;;0.56;91.05;97729.72;5237550;28;20232;-78
2021/01/26 04:47:50;;;;;;;16.43;13.40;;;-0.10;99.90;;;0.66;92.14;97744.91;5236866;28;20214;-80
2021/01/26 04:50:29;;;;;;;16.23;14.00;;;-0.10;99.90;;;0.64;91.46;97732.94;5227622;28;20201;-80
2021/01/26 04:53:39;;;;;;;15.87;14.27;;;-0.10;99.90;;;0.71;91.75;97742.81;5226432;28;20202;-78
2021/01/26 04:56:18;;;;;;;17.10;13.53;;;0.00;99.90;;;0.74;90.98;97744.72;5235560;28;20221;-78
2021/01/26 04:59:04;;;;;;;14.87;13.13;;;0.00;99.90;;;0.61;90.64;97733.53;5250204;28;20622;-78
2021/01/26 05:02:41;;;;;;;15.57;13.10;;;0.00;99.90;;;0.79;92.43;97746.03;5234569;28;20216;-79
2021/01/26 05:05:20;;;;;;;15.37;12.77;;;0.00;99.90;;;0.77;90.05;97735.81;5154863;28;20601;-78
2021/01/26 05:07:57;;;;;;;15.03;13.43;;;0.00;99.90;;;0.78;91.22;97742.66;5158022;28;20709;-78
2021/01/26 05:10:35;;;;;;;16.63;13.30;;;0.00;99.90;;;0.70;91.60;97733.50;5205654;28;20211;-79
2021/01/26 05:13:15;;;;;;;14.80;13.20;;;0.10;99.90;;;0.74;91.47;97735.53;5230066;28;20197;-78
2021/01/26 05:15:57;;;;;;;14.57;12.97;;;0.00;99.90;;;0.61;90.45;97747.75;5246358;28;20216;-79
2021/01/26 05:18:36;;;;;;;15.60;13.30;;;0.00;99.90;;;0.66;90.90;97746.56;5241533;28;20236;-78
2021/01/26 05:21:20;;;;;;;17.37;14.10;;;0.00;99.90;;;0.84;92.10;97748.25;5234874;28;20189;-78
2021/01/26 05:24:02;;;;;;;14.13;12.63;;;0.00;99.90;;;0.72;90.45;97752.16;5240541;28;20205;-79
2021/01/26 05:26:34;;;;;;;13.53;12.13;;;0.00;99.90;;;0.78;91.52;97747.69;5249269;28;20222;-78
2021/01/26 05:29:06;;;;;;;15.23;13.33;;;0.00;99.90;;;0.74;92.15;97755.66;5250312;28;20193;-78
2021/01/26 05:31:39;;;;;;;16.07;13.63;;;0.00;99.90;;;0.80;93.46;97753.75;5240367;28;20202;-79
2021/01/26 05:34:16;;;;;;;16.17;14.10;;;0.00;99.90;;;0.81;92.33;97752.13;5233257;28;20255;-79
2021/01/26 05:36:49;;;;;;;14.60;12.43;;;0.00;99.90;;;0.90;91.32;97747.91;5249779;28;20723;-78
2021/01/26 05:39:29;;;;;;;14.70;13.03;;;0.00;99.90;;;1.01;91.66;97756.47;5235383;28;20218;-78
2021/01/26 05:42:01;;;;;;;16.90;13.53;;;0.10;99.90;;;0.94;91.09;97754.13;5246950;28;20200;-79
2021/01/26 05:44:36;;;;;;;16.63;13.43;;;0.10;99.90;;;0.89;91.72;97751.19;5248345;28;20195;-79
2021/01/26 05:47:26;;;;;;;14.23;12.77;;;0.10;99.90;;;0.76;92.38;97758.34;5240513;28;20196;-79
2021/01/26 05:50:00;;;;;;;16.77;12.97;;;0.10;99.90;;;0.79;91.24;97756.09;5242847;28;20216;-81
2021/01/26 05:52:36;;;;;;;14.03;12.23;;;0.10;99.90;;;0.92;91.77;97761.53;5245714;28;20194;-79
2021/01/26 05:55:17;;;;;;;13.87;11.17;;;0.10;99.90;;;0.89;92.49;97761.25;5245409;28;20225;-79
2021/01/26 05:57:50;;;;;;;13.90;11.60;;;0.10;99.90;;;0.98;91.13;97768.75;5242602;28;20196;-78
2021/01/26 06:00:25;;;;;;;14.90;13.30;;;0.10;99.90;;;1.01;91.77;97771.56;5246269;28;20244;-78
2021/01/26 06:03:09;;;;;;;14.03;12.30;;;0.10;99.90;;;0.98;92.00;97769.66;5242808;28;20193;-78
2021/01/26 06:05:43;;;;;;;15.13;12.57;;;0.10;99.90;;;1.05;91.43;97773.59;5247458;28;20222;-79
2021/01/26 06:08:16;;;;;;;13.93;11.50;;;0.20;99.90;;;1.01;91.12;97774.06;5245385;28;20531;-78
2021/01/26 06:10:48;;;;;;;13.47;11.80;;;0.10;99.90;;;0.96;91.53;97772.75;5237504;28;20206;-78
2021/01/26 06:13:26;;;;;;;13.67;11.70;;;0.20;99.90;;;0.88;91.86;97785.50;5244628;28;20205;-78
2021/01/26 06:16:10;;;;;;;15.23;12.80;;;0.20;99.90;;;0.94;92.69;97787.69;5241782;28;20702;-78
2021/01/26 06:18:57;;;;;;;15.57;13.10;;;0.10;99.90;;;0.97;91.65;97779.56;5243817;28;20230;-78
2021/01/26 06:21:30;;;;;;;15.40;12.57;;;0.10;99.90;;;0.88;91.61;97785.50;5231364;28;20198;-79
2021/01/26 06:24:15;;;;;;;18.17;12.97;;;0.10;99.90;;;0.85;92.64;97782.69;5233907;28;20213;-79
2021/01/26 06:27:09;;;;;;;15.00;12.60;;;0.10;99.90;;;1.05;92.56;97788.69;5239764;28;20238;-79
2021/01/26 06:29:49;;;;;;;13.67;12.27;;;0.00;99.90;;;0.90;91.45;97791.56;5239631;28;20196;-79
2021/01/26 06:32:36;;;;;;;15.83;12.87;;;0.10;99.90;;;0.79;92.45;97792.19;5241261;28;20692;-79
2021/01/26 06:35:18;;;;;;;16.63;13.30;;;0.10;99.90;;;0.75;93.22;97792.69;5238324;28;20226;-79
2021/01/26 06:38:13;;;;;;;16.37;13.17;;;0.00;99.90;;;0.70;93.59;97796.38;5234416;28;20197;-81
2021/01/26 06:41:12;;;;;;;16.90;13.73;;;0.10;99.90;;;0.85;94.13;97809.50;5239649;28;20587;-80
2021/01/26 06:44:17;;;;;;;17.20;13.10;;;0.00;99.90;;;0.81;94.30;97808.34;5234493;28;20275;-79
2021/01/26 06:47:14;;;;;;;16.73;12.20;;;0.00;99.90;;;0.89;93.29;97812.44;5236640;28;20197;-81
2021/01/26 06:49:59;;;;;;;15.93;12.07;;;0.10;99.90;;;1.06;92.52;97810.59;5241183;28;20208;-79
2021/01/26 06:52:59;;;;;;;15.37;12.37;;;0.10;99.90;;;0.95;92.16;97819.69;5241273;28;20557;-80
2021/01/26 06:55:59;;;;;;;14.97;11.83;;;0.10;99.90;;;0.90;92.60;97815.84;5232524;28;20220;-78
2021/01/26 06:59:08;;;;;;;14.77;12.80;;;0.10;99.90;;;0.93;92.01;97828.72;5237202;28;20705;-80
2021/01/26 07:02:18;;;;;;;15.87;11.77;;;0.10;99.90;;;0.92;92.57;97831.06;5231867;28;20227;-79
2021/01/26 07:05:15;;;;;;;15.77;12.00;;;0.10;99.90;;;0.95;92.75;97841.44;5230483;28;20221;-79
2021/01/26 07:08:36;;;;;;;14.60;11.60;;;0.10;99.90;;;1.06;92.25;97825.69;5231219;28;20220;-78
2021/01/26 07:11:26;;;;;;;14.37;11.30;;;0.10;99.90;;;1.07;92.27;97832.50;5241700;28;20202;-79
2021/01/26 07:14:06;;;;;;;13.57;11.03;;;0.10;99.90;;;0.94;92.23;97839.66;5233539;28;20197;-80
2021/01/26 07:16:52;;;;;;;15.67;11.47;;;0.10;99.90;;;0.89;92.78;97837.59;5239671;28;20217;-78
2021/01/26 07:19:52;;;;;;;14.57;11.87;;;0.10;99.90;;;0.94;93.38;97848.09;5233049;28;20299;-78
2021/01/26 07:23:14;;;;;;;14.00;10.73;;;0.20;99.90;;;0.87;93.56;97843.25;5236882;28;20201;-79
2021/01/26 07:26:24;;;;;;;15.00;12.07;;;0.10;99.90;;;0.88;93.54;97840.84;5233718;28;20221;-79
2021/01/26 07:29:14;;;;;;;15.27;11.97;;;0.10;99.90;;;0.93;93.63;97848.84;5234057;28;20192;-78
2021/01/26 07:31:50;;;;;;;14.63;11.23;;;0.20;99.90;;;1.13;92.90;97846.53;5231330;28;20206;-79
2021/01/26 07:34:32;;;;;;;14.97;11.23;;;0.20;99.90;;;1.07;92.22;97857.69;5232870;28;20213;-79
2021/01/26 07:37:12;;;;;;;14.63;10.97;;;0.20;99.90;;;1.10;92.60;97857.97;5226925;28;20201;-78
2021/01/26 07:39:53;;;;;;;13.87;10.90;;;0.20;99.90;;;1.10;91.97;97863.00;5227444;28;20528;-78
2021/01/26 07:42:32;;;;;;;14.63;10.70;;;0.20;99.90;;;1.12;91.72;97862.41;5233181;28;20209;-78
2021/01/26 07:45:13;;;;;;;13.97;10.30;;;0.30;99.90;;;1.07;91.33;97875.28;5234298;28;20226;-78
2021/01/26 07:47:51;;;;;;;13.80;10.47;;;0.20;99.90;;;1.16;91.74;97873.63;5232857;28;20256;-79
2021/01/26 07:50:34;;;;;;;12.60;10.23;;;0.20;99.90;;;1.04;90.84;97872.50;5234439;28;20246;-79
2021/01/26 07:53:18;;;;;;;11.43;9.83;;;0.20;99.90;;;1.13;91.34;97879.25;5231385;28;20569;-80
2021/01/26 07:55:57;;;;;;;11.53;9.87;;;0.30;99.90;;;1.17;91.34;97875.38;5234098;28;20232;-80
2021/01/26 07:58:30;;;;;;;11.57;9.77;;;0.30;99.90;;;1.26;90.95;97881.31;5234148;28;20207;-81
2021/01/26 08:01:03;;;;;;;11.47;9.00;;;0.30;99.90;;;1.06;90.78;97881.06;5234582;28;20227;-81
2021/01/26 08:03:35;;;;;;;11.37;9.13;;;0.30;99.90;;;0.93;91.30;97878.16;5234164;28;20208;-80
2021/01/26 08:06:47;;;;;;;10.17;8.40;;;0.30;99.90;;;0.96;92.08;97888.50;5243830;28;20598;-79
2021/01/26 08:09:25;;;;;;;11.70;8.47;;;0.20;99.90;;;0.94;91.93;97887.47;5230416;28;20206;-80
2021/01/26 08:12:00;;;;;;;11.33;9.53;;;0.20;99.90;;;1.13;91.72;97891.84;5244774;28;20203;-79
2021/01/26 08:14:39;;;;;;;11.70;8.83;;;0.30;99.90;;;1.09;91.44;97896.47;5241092;28;20304;-78
2021/01/26 08:17:17;;;;;;;9.63;8.40;;;0.30;99.90;;;1.07;91.32;97891.28;5238315;28;20213;-79
2021/01/26 08:20:02;;;;;;;12.53;9.57;;;0.30;99.90;;;0.97;92.18;97898.69;5236831;28;20253;-78
2021/01/26 08:22:36;;;;;;;12.53;8.30;;;0.30;99.90;;;1.05;92.52;97901.94;5226245;28;20191;-77
2021/01/26 08:25:13;;;;;;;11.77;9.93;;;0.30;99.90;;;1.13;92.34;97906.06;5230079;28;20683;-78
2021/01/26 08:28:02;;;;;;;11.07;9.53;;;0.40;99.90;;;1.08;92.54;97908.13;5235215;28;20208;-77
2021/01/26 08:31:03;;;;;;;11.27;9.50;;;0.40;99.90;;;1.31;93.50;97912.81;5243545;28;20290;-78
2021/01/26 08:33:36;;;;;;;10.40;9.30;;;0.50;99.90;;;1.23;92.70;97920.38;5234660;28;20204;-79
2021/01/26 08:36:31;;;;;;;10.43;9.33;;;0.40;99.90;;;1.16;92.43;97921.44;5226442;28;20229;-78
2021/01/26 08:39:41;;;;;;;13.10;11.80;;;0.40;99.90;;;1.25;92.20;97917.28;5238542;28;20618;-80
2021/01/26 08:42:56;;;;;;;11.67;10.47;;;0.40;99.90;;;1.21;91.00;97935.34;5232076;28;20208;-78
2021/01/26 08:45:53;;;;;;;10.53;9.50;;;0.30;99.90;;;1.16;91.13;97929.00;5241365;28;20698;-78
2021/01/26 08:48:30;;;;;;;10.40;9.37;;;0.40;99.90;;;1.12;91.91;97935.38;5235729;28;20573;-78
2021/01/26 08:51:13;;;;;;;12.30;11.00;;;0.40;99.90;;;1.19;92.03;97939.34;5226668;28;20186;-79
2021/01/26 08:53:45;;;;;;;12.30;9.13;;;0.40;99.90;;;1.25;91.77;97950.00;5236769;28;20554;-79
2021/01/26 08:56:39;;;;;;;10.53;8.97;;;0.40;99.90;;;1.29;91.84;97938.59;5234931;28;20226;-79
2021/01/26 08:59:29;;;;;;;11.60;9.47;;;0.40;99.90;;;1.27;91.07;97938.44;5231865;28;20606;-78
2021/01/26 09:02:01;;;;;;;10.80;9.03;;;0.40;99.90;;;1.25;91.57;97942.44;5244867;28;21048;-78
2021/01/26 09:04:46;;;;;;;10.47;9.00;;;0.40;99.90;;;1.25;91.11;97942.44;5238041;28;20325;-78
2021/01/26 09:07:50;;;;;;;10.17;9.13;;;0.50;99.90;;;1.26;90.75;97946.75;5238659;28;20197;-78
2021/01/26 09:10:35;;;;;;;10.80;8.90;;;0.40;99.90;;;1.20;90.66;97951.19;5231678;28;20297;-78
2021/01/26 09:13:12;;;;;;;9.53;8.63;;;0.40;99.90;;;1.17;91.70;97955.94;5229636;28;20210;-79
2021/01/26 09:15:50;;;;;;;12.23;8.50;;;0.50;99.90;;;1.20;91.97;97961.25;5224777;28;20221;-79
2021/01/26 09:18:26;;;;;;;9.43;8.43;;;0.50;99.90;;;1.26;92.00;97966.91;5240994;28;20765;-79
2021/01/26 09:21:03;;;;;;;10.03;8.77;;;0.50;99.90;;;1.08;92.02;97971.06;5224706;28;20249;-78
2021/01/26 09:23:37;;;;;;;12.90;8.93;;;0.50;99.90;;;1.12;93.16;97962.19;5233954;28;20206;-78
2021/01/26 09:26:14;;;;;;;11.47;9.30;;;0.50;99.90;;;1.26;93.54;97964.38;5240636;28;20228;-78
2021/01/26 09:28:48;;;;;;;10.63;9.43;;;0.50;99.90;;;1.28;92.75;97959.47;5243925;28;20202;-77
2021/01/26 09:31:25;;;;;;;10.87;8.77;;;0.60;99.90;;;1.29;93.44;97967.19;5242262;28;20210;-78
2021/01/26 09:34:03;;;;;;;10.47;9.43;;;0.60;99.90;;;1.35;93.44;97967.75;5231967;28;20202;-78
2021/01/26 09:36:35;;;;;;;12.53;9.93;;;0.60;99.90;;;1.31;94.13;97970.69;5226672;28;20220;-78
2021/01/26 09:39:10;;;;;;;12.20;10.43;;;0.70;99.90;;;1.35;94.25;97982.84;5232117;28;20210;-78
2021/01/26 09:41:42;;;;;;;11.87;8.10;;;0.70;99.90;;;1.35;93.92;97982.84;5236126;28;20199;-79
2021/01/26 09:44:20;;;;;;;12.67;9.73;;;0.70;99.90;;;1.44;93.86;97982.84;5227401;28;20218;-79
2021/01/26 09:47:01;;;;;;;12.97;10.50;;;0.70;99.90;;;1.42;94.24;97990.97;5230853;28;20202;-79
2021/01/26 09:49:34;;;;;;;14.20;9.87;;;0.80;99.90;;;1.52;94.54;97994.50;5230500;28;20205;-79
2021/01/26 09:52:15;;;;;;;9.33;8.53;;;0.80;99.90;;;1.53;93.81;98001.31;5230881;28;20214;-79
2021/01/26 09:54:52;;;;;;;13.00;8.47;;;0.80;99.90;;;1.59;94.12;98001.00;5230455;28;20226;-79
2021/01/26 09:57:25;;;;;;;10.50;7.80;;;0.90;99.90;;;1.52;92.27;98002.06;5242671;28;20207;-79
2021/01/26 09:59:58;;;;;;;9.63;8.57;;;0.90;99.90;;;1.58;93.30;97996.72;5235228;28;20222;-78
2021/01/26 10:02:31;;;;;;;11.70;9.10;;;0.90;99.90;;;1.67;93.21;97994.16;5246678;28;20552;-79
2021/01/26 10:05:08;;;;;;;14.33;12.83;;;0.90;99.90;;;1.71;92.50;97992.06;5249505;28;20588;-79
2021/01/26 10:07:41;;;;;;;11.43;10.33;;;1.10;99.90;;;1.79;92.79;97998.69;5249348;28;20202;-81
2021/01/26 10:10:21;;;;;;;11.33;8.83;;;1.10;99.90;;;1.80;91.85;98000.50;5247341;28;20212;-80
2021/01/26 10:12:53;;;;;;;12.97;10.47;;;1.10;99.90;;;1.91;92.09;97998.06;5247899;28;20226;-79
2021/01/26 10:15:34;;;;;;;10.27;8.03;;;1.20;99.90;;;1.85;90.79;98008.47;5228323;28;20217;-79
2021/01/26 10:18:13;;;;;;;8.67;7.13;;;1.10;99.90;;;1.75;90.82;98011.78;5231607;28;20207;-78
2021/01/26 10:20:57;;;;;;;8.53;7.67;;;1.20;99.90;;;1.70;92.29;98015.50;5238227;28;20242;-77
2021/01/26 10:23:34;;;;;;;9.03;8.13;;;1.10;99.90;;;1.63;90.14;98018.19;5232074;28;20580;-80
2021/01/26 10:26:23;;;;;;;9.17;8.37;;;1.10;99.90;;;1.65;92.16;98024.25;5231960;28;20226;-78
2021/01/26 10:28:59;;;;;;;9.63;8.60;;;1.10;99.90;;;1.66;92.82;98023.53;5237528;28;20289;-79
2021/01/26 10:31:42;;;;;;;8.43;7.63;;;1.10;99.90;;;1.66;91.75;98028.56;5228398;28;20212;-79
2021/01/26 10:34:24;;;;;;;8.37;7.57;;;1.00;99.90;;;1.65;93.49;98029.28;5233312;28;20205;-79
2021/01/26 10:36:56;;;;;;;9.77;8.73;;;1.10;99.90;;;1.75;93.51;98028.53;5236944;28;20298;-77
2021/01/26 10:39:30;;;;;;;11.83;9.67;;;1.10;99.90;;;1.90;94.01;98024.91;5236104;28;20220;-79
2021/01/26 10:42:11;;;;;;;10.43;8.50;;;1.20;99.90;;;1.86;93.29;98026.97;5246286;28;20660;-79
2021/01/26 10:44:45;;;;;;;9.13;8.20;;;1.20;99.90;;;1.86;92.85;98024.47;5232854;28;20730;-77
2021/01/26 10:47:30;;;;;;;8.47;7.77;;;1.20;99.90;;;1.94;92.90;98026.94;5239592;28;20201;-78
2021/01/26 10:50:09;;;;;;;8.10;7.17;;;1.20;99.90;;;2.03;93.19;98030.34;5232336;28;20292;-79
2021/01/26 10:52:44;;;;;;;9.93;7.90;;;1.30;99.90;;;2.14;92.98;98023.75;5243374;28;20204;-78
2021/01/26 10:55:20;;;;;;;10.17;7.67;;;1.40;99.90;;;2.20;91.42;98026.84;5235292;28;20217;-78
2021/01/26 10:57:54;;;;;;;7.57;6.87;;;1.40;99.90;;;2.23;91.31;98023.69;5249810;28;20188;-78
2021/01/26 11:00:26;;;;;;;8.17;7.33;;;1.50;99.90;;;2.27;92.46;98027.41;5232890;28;20222;-77
2021/01/26 11:02:59;;;;;;;8.07;6.70;;;1.50;99.90;;;2.19;89.17;98037.66;5232015;28;20722;-77
2021/01/26 11:05:32;;;;;;;8.73;7.83;;;1.50;99.90;;;2.25;91.40;98033.19;5233145;28;20230;-78
2021/01/26 11:08:05;;;;;;;9.83;8.83;;;1.60;99.90;;;2.28;92.61;98036.72;5235676;28;20215;-79
2021/01/26 11:10:37;;;;;;;7.73;6.93;;;1.50;99.90;;;2.22;91.49;98030.38;5234876;28;20210;-79
2021/01/26 11:13:10;;;;;;;11.00;8.43;;;1.50;99.90;;;2.21;90.89;98037.81;5227803;28;20573;-78
2021/01/26 11:15:42;;;;;;;15.87;11.40;;;1.50;99.90;;;2.16;91.05;98028.94;5227885;28;20231;-80
2021/01/26 11:18:14;;;;;;;12.97;10.27;;;1.40;99.90;;;2.19;91.13;98035.13;5230191;28;20304;-77